sensor_id;sensor_type;location;lat;lon;timestamp;P1;durP1;ratioP1;P2;durP2;ratioP2
4873;SDS011;2451;49.970;9.068;2024-03-08T00:01:47;19.23;;;11.27;;
4873;SDS011;2451;49.970;9.068;2024-03-08T00:04:13;18.48;;;11.00;;
4873;SDS011;2451;49.970;9.068;2024-03-08T00:06:40;20.63;;;11.05;;
4873;SDS011;2451;49.970;9.068;2024-03-08T00:09:06;21.25;;;12.02;;
4873;SDS011;2451;49.970;9.068;2024-03-08T00:11:33;18.98;;;11.98;;
4873;SDS011;2451;49.970;9.068;2024-03-08T00:13:59;18.65;;;11.20;;
4873;SDS011;2451;49.970;9.068;2024-03-08T00:16:24;18.77;;;11.68;;
4873;SDS011;2451;49.970;9.068;2024-03-08T00:18:50;20.67;;;11.52;;
4873;SDS011;2451;49.970;9.068;2024-03-08T00:21:15;18.42;;;10.63;;
4873;SDS011;2451;49.970;9.068;2024-03-08T00:23:41;16.90;;;10.38;;
4873;SDS011;2451;49.970;9.068;2024-03-08T00:26:06;20.27;;;10.45;;
4873;SDS011;2451;49.970;9.068;2024-03-08T00:28:32;21.67;;;11.45;;
4873;SDS011;2451;49.970;9.068;2024-03-08T00:30:59;19.38;;;10.65;;
4873;SDS011;2451;49.970;9.068;2024-03-08T00:33:25;19.95;;;11.52;;
4873;SDS011;2451;49.970;9.068;2024-03-08T00:35:52;19.48;;;11.55;;
4873;SDS011;2451;49.970;9.068;2024-03-08T00:38:18;19.08;;;10.45;;
4873;SDS011;2451;49.970;9.068;2024-03-08T00:40:44;19.70;;;10.82;;
4873;SDS011;2451;49.970;9.068;2024-03-08T00:43:10;19.98;;;10.57;;
4873;SDS011;2451;49.970;9.068;2024-03-08T00:45:35;19.83;;;10.70;;
4873;SDS011;2451;49.970;9.068;2024-03-08T00:48:02;19.05;;;11.48;;
4873;SDS011;2451;49.970;9.068;2024-03-08T00:50:28;21.25;;;11.40;;
4873;SDS011;2451;49.970;9.068;2024-03-08T00:52:53;18.17;;;10.88;;
4873;SDS011;2451;49.970;9.068;2024-03-08T00:55:19;20.98;;;11.32;;
4873;SDS011;2451;49.970;9.068;2024-03-08T00:57:45;20.42;;;12.27;;
4873;SDS011;2451;49.970;9.068;2024-03-08T01:00:10;19.67;;;12.60;;
4873;SDS011;2451;49.970;9.068;2024-03-08T01:02:37;23.67;;;11.15;;
4873;SDS011;2451;49.970;9.068;2024-03-08T01:05:03;20.63;;;11.30;;
4873;SDS011;2451;49.970;9.068;2024-03-08T01:07:32;20.80;;;11.80;;
4873;SDS011;2451;49.970;9.068;2024-03-08T01:09:57;20.10;;;11.65;;
4873;SDS011;2451;49.970;9.068;2024-03-08T01:12:23;22.27;;;11.13;;
4873;SDS011;2451;49.970;9.068;2024-03-08T01:14:48;20.40;;;11.80;;
4873;SDS011;2451;49.970;9.068;2024-03-08T01:17:14;19.92;;;11.95;;
4873;SDS011;2451;49.970;9.068;2024-03-08T01:19:39;21.13;;;11.75;;
4873;SDS011;2451;49.970;9.068;2024-03-08T01:22:05;18.85;;;11.10;;
4873;SDS011;2451;49.970;9.068;2024-03-08T01:24:30;20.10;;;11.77;;
4873;SDS011;2451;49.970;9.068;2024-03-08T01:26:56;20.05;;;11.68;;
4873;SDS011;2451;49.970;9.068;2024-03-08T01:29:21;20.63;;;12.05;;
4873;SDS011;2451;49.970;9.068;2024-03-08T01:31:47;24.58;;;13.30;;
4873;SDS011;2451;49.970;9.068;2024-03-08T01:34:13;23.48;;;12.25;;
4873;SDS011;2451;49.970;9.068;2024-03-08T01:36:38;23.63;;;12.85;;
4873;SDS011;2451;49.970;9.068;2024-03-08T01:39:04;21.70;;;12.18;;
4873;SDS011;2451;49.970;9.068;2024-03-08T01:41:33;21.23;;;12.37;;
4873;SDS011;2451;49.970;9.068;2024-03-08T01:43:59;22.83;;;12.85;;
4873;SDS011;2451;49.970;9.068;2024-03-08T01:46:25;20.05;;;11.82;;
4873;SDS011;2451;49.970;9.068;2024-03-08T01:48:53;19.77;;;12.23;;
4873;SDS011;2451;49.970;9.068;2024-03-08T01:51:19;23.23;;;11.88;;
4873;SDS011;2451;49.970;9.068;2024-03-08T01:53:46;21.10;;;12.27;;
4873;SDS011;2451;49.970;9.068;2024-03-08T01:56:13;23.20;;;12.13;;
4873;SDS011;2451;49.970;9.068;2024-03-08T01:58:40;20.20;;;12.05;;
4873;SDS011;2451;49.970;9.068;2024-03-08T02:01:11;21.20;;;11.50;;
4873;SDS011;2451;49.970;9.068;2024-03-08T02:03:40;23.50;;;12.38;;
4873;SDS011;2451;49.970;9.068;2024-03-08T02:06:08;18.50;;;11.57;;
4873;SDS011;2451;49.970;9.068;2024-03-08T02:08:36;24.42;;;12.65;;
4873;SDS011;2451;49.970;9.068;2024-03-08T02:11:02;21.73;;;12.52;;
4873;SDS011;2451;49.970;9.068;2024-03-08T02:13:28;21.48;;;11.77;;
4873;SDS011;2451;49.970;9.068;2024-03-08T02:15:54;23.92;;;12.07;;
4873;SDS011;2451;49.970;9.068;2024-03-08T02:18:22;26.23;;;12.80;;
4873;SDS011;2451;49.970;9.068;2024-03-08T02:20:58;21.23;;;11.70;;
4873;SDS011;2451;49.970;9.068;2024-03-08T02:23:24;21.67;;;11.77;;
4873;SDS011;2451;49.970;9.068;2024-03-08T02:25:51;23.08;;;13.45;;
4873;SDS011;2451;49.970;9.068;2024-03-08T02:28:17;21.88;;;12.00;;
4873;SDS011;2451;49.970;9.068;2024-03-08T02:30:46;24.63;;;13.85;;
4873;SDS011;2451;49.970;9.068;2024-03-08T02:33:13;22.30;;;12.82;;
4873;SDS011;2451;49.970;9.068;2024-03-08T02:35:41;26.88;;;13.43;;
4873;SDS011;2451;49.970;9.068;2024-03-08T02:38:10;22.17;;;13.60;;
4873;SDS011;2451;49.970;9.068;2024-03-08T02:40:43;23.98;;;12.80;;
4873;SDS011;2451;49.970;9.068;2024-03-08T02:43:10;23.13;;;12.38;;
4873;SDS011;2451;49.970;9.068;2024-03-08T02:45:36;23.33;;;13.27;;
4873;SDS011;2451;49.970;9.068;2024-03-08T02:48:02;23.73;;;12.45;;
4873;SDS011;2451;49.970;9.068;2024-03-08T02:50:28;21.35;;;12.45;;
4873;SDS011;2451;49.970;9.068;2024-03-08T02:52:53;27.35;;;12.00;;
4873;SDS011;2451;49.970;9.068;2024-03-08T02:55:19;22.60;;;12.18;;
4873;SDS011;2451;49.970;9.068;2024-03-08T02:57:45;24.95;;;12.90;;
4873;SDS011;2451;49.970;9.068;2024-03-08T03:00:12;23.00;;;11.95;;
4873;SDS011;2451;49.970;9.068;2024-03-08T03:02:38;24.83;;;13.30;;
4873;SDS011;2451;49.970;9.068;2024-03-08T03:05:04;21.15;;;12.05;;
4873;SDS011;2451;49.970;9.068;2024-03-08T03:07:33;25.30;;;12.68;;
4873;SDS011;2451;49.970;9.068;2024-03-08T03:09:59;23.50;;;11.95;;
4873;SDS011;2451;49.970;9.068;2024-03-08T03:12:26;21.67;;;12.60;;
4873;SDS011;2451;49.970;9.068;2024-03-08T03:14:53;21.98;;;12.23;;
4873;SDS011;2451;49.970;9.068;2024-03-08T03:17:18;22.65;;;13.85;;
4873;SDS011;2451;49.970;9.068;2024-03-08T03:19:45;23.17;;;13.00;;
4873;SDS011;2451;49.970;9.068;2024-03-08T03:22:11;24.95;;;14.43;;
4873;SDS011;2451;49.970;9.068;2024-03-08T03:24:37;25.00;;;13.55;;
4873;SDS011;2451;49.970;9.068;2024-03-08T03:27:07;20.63;;;12.07;;
4873;SDS011;2451;49.970;9.068;2024-03-08T03:29:39;24.10;;;13.10;;
4873;SDS011;2451;49.970;9.068;2024-03-08T03:32:07;23.10;;;12.90;;
4873;SDS011;2451;49.970;9.068;2024-03-08T03:34:33;25.15;;;14.45;;
4873;SDS011;2451;49.970;9.068;2024-03-08T03:37:02;25.52;;;14.20;;
4873;SDS011;2451;49.970;9.068;2024-03-08T03:39:29;26.75;;;15.00;;
4873;SDS011;2451;49.970;9.068;2024-03-08T03:41:57;26.63;;;15.02;;
4873;SDS011;2451;49.970;9.068;2024-03-08T03:44:23;25.60;;;14.40;;
4873;SDS011;2451;49.970;9.068;2024-03-08T03:46:49;25.00;;;14.93;;
4873;SDS011;2451;49.970;9.068;2024-03-08T03:49:15;27.88;;;15.85;;
4873;SDS011;2451;49.970;9.068;2024-03-08T03:51:42;25.42;;;15.23;;
4873;SDS011;2451;49.970;9.068;2024-03-08T03:54:07;24.55;;;15.13;;
4873;SDS011;2451;49.970;9.068;2024-03-08T03:56:33;27.48;;;15.50;;
4873;SDS011;2451;49.970;9.068;2024-03-08T03:58:58;26.17;;;15.50;;
4873;SDS011;2451;49.970;9.068;2024-03-08T04:01:24;27.27;;;14.93;;
4873;SDS011;2451;49.970;9.068;2024-03-08T04:03:49;25.70;;;15.57;;
4873;SDS011;2451;49.970;9.068;2024-03-08T04:06:15;30.27;;;16.40;;
4873;SDS011;2451;49.970;9.068;2024-03-08T04:08:40;28.23;;;16.55;;
4873;SDS011;2451;49.970;9.068;2024-03-08T04:11:07;29.33;;;17.35;;
4873;SDS011;2451;49.970;9.068;2024-03-08T04:13:33;27.63;;;16.83;;
4873;SDS011;2451;49.970;9.068;2024-03-08T04:15:59;27.48;;;16.50;;
4873;SDS011;2451;49.970;9.068;2024-03-08T04:18:25;29.60;;;16.33;;
4873;SDS011;2451;49.970;9.068;2024-03-08T04:20:51;26.65;;;16.33;;
4873;SDS011;2451;49.970;9.068;2024-03-08T04:23:16;30.40;;;16.50;;
4873;SDS011;2451;49.970;9.068;2024-03-08T04:25:43;26.38;;;15.57;;
4873;SDS011;2451;49.970;9.068;2024-03-08T04:28:08;25.65;;;14.40;;
4873;SDS011;2451;49.970;9.068;2024-03-08T04:30:38;28.50;;;16.40;;
4873;SDS011;2451;49.970;9.068;2024-03-08T04:33:04;27.42;;;15.90;;
4873;SDS011;2451;49.970;9.068;2024-03-08T04:35:31;28.55;;;16.35;;
4873;SDS011;2451;49.970;9.068;2024-03-08T04:37:57;31.08;;;17.17;;
4873;SDS011;2451;49.970;9.068;2024-03-08T04:40:23;33.28;;;17.00;;
4873;SDS011;2451;49.970;9.068;2024-03-08T04:42:49;30.02;;;16.33;;
4873;SDS011;2451;49.970;9.068;2024-03-08T04:45:15;33.00;;;15.95;;
4873;SDS011;2451;49.970;9.068;2024-03-08T04:47:41;29.05;;;17.08;;
4873;SDS011;2451;49.970;9.068;2024-03-08T04:50:07;26.25;;;16.17;;
4873;SDS011;2451;49.970;9.068;2024-03-08T04:52:34;26.90;;;16.80;;
4873;SDS011;2451;49.970;9.068;2024-03-08T04:55:00;26.23;;;16.17;;
4873;SDS011;2451;49.970;9.068;2024-03-08T04:57:26;26.50;;;15.70;;
4873;SDS011;2451;49.970;9.068;2024-03-08T04:59:52;25.55;;;15.02;;
4873;SDS011;2451;49.970;9.068;2024-03-08T05:02:18;27.42;;;16.42;;
4873;SDS011;2451;49.970;9.068;2024-03-08T05:04:43;25.50;;;14.75;;
4873;SDS011;2451;49.970;9.068;2024-03-08T05:07:09;26.92;;;15.65;;
4873;SDS011;2451;49.970;9.068;2024-03-08T05:09:34;26.15;;;15.25;;
4873;SDS011;2451;49.970;9.068;2024-03-08T05:12:01;25.70;;;15.38;;
4873;SDS011;2451;49.970;9.068;2024-03-08T05:14:26;24.63;;;14.20;;
4873;SDS011;2451;49.970;9.068;2024-03-08T05:16:52;25.63;;;13.27;;
4873;SDS011;2451;49.970;9.068;2024-03-08T05:19:18;25.38;;;13.73;;
4873;SDS011;2451;49.970;9.068;2024-03-08T05:21:44;26.67;;;14.43;;
4873;SDS011;2451;49.970;9.068;2024-03-08T05:24:10;25.63;;;14.98;;
4873;SDS011;2451;49.970;9.068;2024-03-08T05:26:36;24.05;;;14.75;;
4873;SDS011;2451;49.970;9.068;2024-03-08T05:29:04;23.85;;;14.95;;
4873;SDS011;2451;49.970;9.068;2024-03-08T05:31:36;26.13;;;15.18;;
4873;SDS011;2451;49.970;9.068;2024-03-08T05:34:08;31.00;;;17.50;;
4873;SDS011;2451;49.970;9.068;2024-03-08T05:36:35;29.65;;;17.17;;
4873;SDS011;2451;49.970;9.068;2024-03-08T05:39:00;29.38;;;17.45;;
4873;SDS011;2451;49.970;9.068;2024-03-08T05:41:26;30.92;;;18.38;;
4873;SDS011;2451;49.970;9.068;2024-03-08T05:43:51;28.88;;;18.10;;
4873;SDS011;2451;49.970;9.068;2024-03-08T05:46:17;30.70;;;18.83;;
4873;SDS011;2451;49.970;9.068;2024-03-08T05:48:43;30.08;;;18.50;;
4873;SDS011;2451;49.970;9.068;2024-03-08T05:51:08;34.03;;;18.45;;
4873;SDS011;2451;49.970;9.068;2024-03-08T05:53:34;31.42;;;19.58;;
4873;SDS011;2451;49.970;9.068;2024-03-08T05:56:00;30.60;;;18.77;;
4873;SDS011;2451;49.970;9.068;2024-03-08T05:58:27;30.60;;;19.52;;
4873;SDS011;2451;49.970;9.068;2024-03-08T06:00:55;33.70;;;20.35;;
4873;SDS011;2451;49.970;9.068;2024-03-08T06:03:20;31.92;;;20.38;;
4873;SDS011;2451;49.970;9.068;2024-03-08T06:05:46;31.48;;;19.70;;
4873;SDS011;2451;49.970;9.068;2024-03-08T06:08:13;32.30;;;20.83;;
4873;SDS011;2451;49.970;9.068;2024-03-08T06:10:39;35.90;;;22.67;;
4873;SDS011;2451;49.970;9.068;2024-03-08T06:13:05;35.13;;;23.17;;
4873;SDS011;2451;49.970;9.068;2024-03-08T06:15:31;37.00;;;23.23;;
4873;SDS011;2451;49.970;9.068;2024-03-08T06:17:57;33.50;;;21.08;;
4873;SDS011;2451;49.970;9.068;2024-03-08T06:20:22;34.80;;;20.40;;
4873;SDS011;2451;49.970;9.068;2024-03-08T06:22:51;32.70;;;20.55;;
4873;SDS011;2451;49.970;9.068;2024-03-08T06:25:17;37.47;;;22.45;;
4873;SDS011;2451;49.970;9.068;2024-03-08T06:27:42;35.10;;;22.40;;
4873;SDS011;2451;49.970;9.068;2024-03-08T06:30:09;31.55;;;19.58;;
4873;SDS011;2451;49.970;9.068;2024-03-08T06:32:35;34.53;;;19.40;;
4873;SDS011;2451;49.970;9.068;2024-03-08T06:35:02;31.13;;;18.88;;
4873;SDS011;2451;49.970;9.068;2024-03-08T06:37:31;30.25;;;19.17;;
4873;SDS011;2451;49.970;9.068;2024-03-08T06:39:57;31.50;;;18.52;;
4873;SDS011;2451;49.970;9.068;2024-03-08T06:42:23;30.23;;;18.33;;
4873;SDS011;2451;49.970;9.068;2024-03-08T06:44:48;26.55;;;16.45;;
4873;SDS011;2451;49.970;9.068;2024-03-08T06:47:17;28.60;;;17.40;;
4873;SDS011;2451;49.970;9.068;2024-03-08T06:49:42;27.85;;;16.33;;
4873;SDS011;2451;49.970;9.068;2024-03-08T06:52:08;25.60;;;14.63;;
4873;SDS011;2451;49.970;9.068;2024-03-08T06:54:37;24.75;;;14.25;;
4873;SDS011;2451;49.970;9.068;2024-03-08T06:57:03;26.13;;;14.88;;
4873;SDS011;2451;49.970;9.068;2024-03-08T06:59:30;24.73;;;13.85;;
4873;SDS011;2451;49.970;9.068;2024-03-08T07:01:56;23.05;;;13.57;;
4873;SDS011;2451;49.970;9.068;2024-03-08T07:04:21;24.58;;;13.50;;
4873;SDS011;2451;49.970;9.068;2024-03-08T07:06:51;22.92;;;12.73;;
4873;SDS011;2451;49.970;9.068;2024-03-08T07:09:17;24.95;;;12.90;;
4873;SDS011;2451;49.970;9.068;2024-03-08T07:11:42;24.27;;;13.35;;
4873;SDS011;2451;49.970;9.068;2024-03-08T07:14:08;24.38;;;12.85;;
4873;SDS011;2451;49.970;9.068;2024-03-08T07:16:34;23.90;;;12.77;;
4873;SDS011;2451;49.970;9.068;2024-03-08T07:19:03;26.33;;;14.02;;
4873;SDS011;2451;49.970;9.068;2024-03-08T07:21:30;23.88;;;13.00;;
4873;SDS011;2451;49.970;9.068;2024-03-08T07:23:55;21.38;;;13.13;;
4873;SDS011;2451;49.970;9.068;2024-03-08T07:26:24;21.45;;;12.18;;
4873;SDS011;2451;49.970;9.068;2024-03-08T07:28:49;23.33;;;11.98;;
4873;SDS011;2451;49.970;9.068;2024-03-08T07:31:15;21.77;;;12.45;;
4873;SDS011;2451;49.970;9.068;2024-03-08T07:33:52;24.38;;;12.48;;
4873;SDS011;2451;49.970;9.068;2024-03-08T07:36:18;24.90;;;12.82;;
4873;SDS011;2451;49.970;9.068;2024-03-08T07:38:44;25.35;;;12.85;;
4873;SDS011;2451;49.970;9.068;2024-03-08T07:41:11;25.90;;;13.93;;
4873;SDS011;2451;49.970;9.068;2024-03-08T07:43:38;23.15;;;11.98;;
4873;SDS011;2451;49.970;9.068;2024-03-08T07:46:03;22.38;;;12.25;;
4873;SDS011;2451;49.970;9.068;2024-03-08T07:48:29;25.65;;;12.77;;
4873;SDS011;2451;49.970;9.068;2024-03-08T07:50:55;24.30;;;13.18;;
4873;SDS011;2451;49.970;9.068;2024-03-08T07:53:21;21.05;;;11.98;;
4873;SDS011;2451;49.970;9.068;2024-03-08T07:55:46;22.83;;;11.50;;
4873;SDS011;2451;49.970;9.068;2024-03-08T07:58:12;23.45;;;12.43;;
4873;SDS011;2451;49.970;9.068;2024-03-08T08:00:38;21.42;;;11.20;;
4873;SDS011;2451;49.970;9.068;2024-03-08T08:03:04;22.90;;;12.27;;
4873;SDS011;2451;49.970;9.068;2024-03-08T08:05:30;22.08;;;12.10;;
4873;SDS011;2451;49.970;9.068;2024-03-08T08:08:00;21.17;;;12.15;;
4873;SDS011;2451;49.970;9.068;2024-03-08T08:10:31;24.33;;;12.45;;
4873;SDS011;2451;49.970;9.068;2024-03-08T08:12:57;21.02;;;11.10;;
4873;SDS011;2451;49.970;9.068;2024-03-08T08:15:23;21.88;;;11.55;;
4873;SDS011;2451;49.970;9.068;2024-03-08T08:17:49;21.67;;;10.98;;
4873;SDS011;2451;49.970;9.068;2024-03-08T08:20:14;22.33;;;10.82;;
4873;SDS011;2451;49.970;9.068;2024-03-08T08:22:40;23.67;;;12.25;;
4873;SDS011;2451;49.970;9.068;2024-03-08T08:25:06;20.73;;;10.85;;
4873;SDS011;2451;49.970;9.068;2024-03-08T08:27:33;20.85;;;11.60;;
4873;SDS011;2451;49.970;9.068;2024-03-08T08:29:58;23.73;;;11.93;;
4873;SDS011;2451;49.970;9.068;2024-03-08T08:32:25;19.30;;;10.40;;
4873;SDS011;2451;49.970;9.068;2024-03-08T08:34:51;22.27;;;10.95;;
4873;SDS011;2451;49.970;9.068;2024-03-08T08:37:17;19.27;;;10.45;;
4873;SDS011;2451;49.970;9.068;2024-03-08T08:39:42;19.63;;;10.90;;
4873;SDS011;2451;49.970;9.068;2024-03-08T08:42:08;19.20;;;10.75;;
4873;SDS011;2451;49.970;9.068;2024-03-08T08:44:34;20.05;;;10.82;;
4873;SDS011;2451;49.970;9.068;2024-03-08T08:47:00;20.00;;;10.60;;
4873;SDS011;2451;49.970;9.068;2024-03-08T08:49:26;19.38;;;10.57;;
4873;SDS011;2451;49.970;9.068;2024-03-08T08:51:52;17.30;;;9.57;;
4873;SDS011;2451;49.970;9.068;2024-03-08T08:54:17;20.02;;;10.75;;
4873;SDS011;2451;49.970;9.068;2024-03-08T08:56:43;18.10;;;9.77;;
4873;SDS011;2451;49.970;9.068;2024-03-08T08:59:09;19.42;;;10.27;;
4873;SDS011;2451;49.970;9.068;2024-03-08T09:01:38;20.02;;;11.40;;
4873;SDS011;2451;49.970;9.068;2024-03-08T09:04:04;18.10;;;9.80;;
4873;SDS011;2451;49.970;9.068;2024-03-08T09:06:30;21.23;;;11.07;;
4873;SDS011;2451;49.970;9.068;2024-03-08T09:08:56;17.67;;;10.35;;
4873;SDS011;2451;49.970;9.068;2024-03-08T09:11:29;17.15;;;9.73;;
4873;SDS011;2451;49.970;9.068;2024-03-08T09:13:54;17.98;;;9.13;;
4873;SDS011;2451;49.970;9.068;2024-03-08T09:16:20;17.85;;;9.48;;
4873;SDS011;2451;49.970;9.068;2024-03-08T09:18:46;17.50;;;10.20;;
4873;SDS011;2451;49.970;9.068;2024-03-08T09:21:14;20.60;;;11.15;;
4873;SDS011;2451;49.970;9.068;2024-03-08T09:23:40;17.23;;;9.07;;
4873;SDS011;2451;49.970;9.068;2024-03-08T09:26:06;20.58;;;9.75;;
4873;SDS011;2451;49.970;9.068;2024-03-08T09:28:34;20.33;;;10.10;;
4873;SDS011;2451;49.970;9.068;2024-03-08T09:31:00;15.98;;;9.00;;
4873;SDS011;2451;49.970;9.068;2024-03-08T09:33:26;16.75;;;9.13;;
4873;SDS011;2451;49.970;9.068;2024-03-08T09:35:53;15.05;;;8.45;;
4873;SDS011;2451;49.970;9.068;2024-03-08T09:38:19;16.38;;;8.82;;
4873;SDS011;2451;49.970;9.068;2024-03-08T09:40:45;17.73;;;9.35;;
4873;SDS011;2451;49.970;9.068;2024-03-08T09:43:11;17.55;;;9.30;;
4873;SDS011;2451;49.970;9.068;2024-03-08T09:45:37;16.60;;;7.50;;
4873;SDS011;2451;49.970;9.068;2024-03-08T09:48:09;17.85;;;9.27;;
4873;SDS011;2451;49.970;9.068;2024-03-08T09:50:39;15.80;;;8.73;;
4873;SDS011;2451;49.970;9.068;2024-03-08T09:53:06;19.63;;;9.45;;
4873;SDS011;2451;49.970;9.068;2024-03-08T09:55:34;17.70;;;9.25;;
4873;SDS011;2451;49.970;9.068;2024-03-08T09:58:07;15.73;;;8.05;;
4873;SDS011;2451;49.970;9.068;2024-03-08T10:00:57;15.93;;;8.77;;
4873;SDS011;2451;49.970;9.068;2024-03-08T10:03:23;18.73;;;9.18;;
4873;SDS011;2451;49.970;9.068;2024-03-08T10:05:51;17.25;;;9.07;;
4873;SDS011;2451;49.970;9.068;2024-03-08T10:08:17;15.90;;;8.63;;
4873;SDS011;2451;49.970;9.068;2024-03-08T10:10:42;16.20;;;8.35;;
4873;SDS011;2451;49.970;9.068;2024-03-08T10:13:09;15.65;;;8.05;;
4873;SDS011;2451;49.970;9.068;2024-03-08T10:15:36;16.60;;;8.52;;
4873;SDS011;2451;49.970;9.068;2024-03-08T10:18:10;15.13;;;8.63;;
4873;SDS011;2451;49.970;9.068;2024-03-08T10:20:36;16.52;;;8.20;;
4873;SDS011;2451;49.970;9.068;2024-03-08T10:23:11;15.57;;;8.95;;
4873;SDS011;2451;49.970;9.068;2024-03-08T10:25:38;14.65;;;8.05;;
4873;SDS011;2451;49.970;9.068;2024-03-08T10:28:04;15.55;;;8.00;;
4873;SDS011;2451;49.970;9.068;2024-03-08T10:30:30;16.58;;;8.40;;
4873;SDS011;2451;49.970;9.068;2024-03-08T10:32:56;17.98;;;8.73;;
4873;SDS011;2451;49.970;9.068;2024-03-08T10:35:21;16.17;;;8.18;;
4873;SDS011;2451;49.970;9.068;2024-03-08T10:37:51;19.08;;;9.30;;
4873;SDS011;2451;49.970;9.068;2024-03-08T10:40:28;16.15;;;8.00;;
4873;SDS011;2451;49.970;9.068;2024-03-08T10:42:59;15.82;;;8.18;;
4873;SDS011;2451;49.970;9.068;2024-03-08T10:47:51;17.75;;;9.13;;
4873;SDS011;2451;49.970;9.068;2024-03-08T10:50:27;17.00;;;8.60;;
4873;SDS011;2451;49.970;9.068;2024-03-08T10:52:53;15.57;;;7.90;;
4873;SDS011;2451;49.970;9.068;2024-03-08T10:55:21;16.25;;;8.52;;
4873;SDS011;2451;49.970;9.068;2024-03-08T10:57:49;16.52;;;9.50;;
4873;SDS011;2451;49.970;9.068;2024-03-08T11:00:16;17.50;;;8.93;;
4873;SDS011;2451;49.970;9.068;2024-03-08T11:02:44;17.58;;;8.60;;
4873;SDS011;2451;49.970;9.068;2024-03-08T11:05:10;17.38;;;9.52;;
4873;SDS011;2451;49.970;9.068;2024-03-08T11:07:42;16.02;;;9.32;;
4873;SDS011;2451;49.970;9.068;2024-03-08T11:10:18;17.05;;;9.18;;
4873;SDS011;2451;49.970;9.068;2024-03-08T11:12:44;19.23;;;9.77;;
4873;SDS011;2451;49.970;9.068;2024-03-08T11:15:12;17.45;;;8.05;;
4873;SDS011;2451;49.970;9.068;2024-03-08T11:17:44;18.30;;;8.73;;
4873;SDS011;2451;49.970;9.068;2024-03-08T11:20:14;13.32;;;7.63;;
4873;SDS011;2451;49.970;9.068;2024-03-08T11:22:53;15.67;;;8.87;;
4873;SDS011;2451;49.970;9.068;2024-03-08T11:25:39;15.98;;;8.40;;
4873;SDS011;2451;49.970;9.068;2024-03-08T11:28:12;18.23;;;9.75;;
4873;SDS011;2451;49.970;9.068;2024-03-08T11:33:27;17.20;;;8.02;;
4873;SDS011;2451;49.970;9.068;2024-03-08T11:38:49;15.95;;;8.93;;
4873;SDS011;2451;49.970;9.068;2024-03-08T11:41:19;15.82;;;8.38;;
4873;SDS011;2451;49.970;9.068;2024-03-08T11:43:46;15.98;;;8.73;;
4873;SDS011;2451;49.970;9.068;2024-03-08T11:46:16;14.93;;;8.02;;
4873;SDS011;2451;49.970;9.068;2024-03-08T11:48:46;14.95;;;8.15;;
4873;SDS011;2451;49.970;9.068;2024-03-08T11:51:13;16.48;;;9.10;;
4873;SDS011;2451;49.970;9.068;2024-03-08T11:53:40;17.95;;;8.88;;
4873;SDS011;2451;49.970;9.068;2024-03-08T11:56:11;16.45;;;9.35;;
4873;SDS011;2451;49.970;9.068;2024-03-08T11:58:40;16.15;;;9.07;;
4873;SDS011;2451;49.970;9.068;2024-03-08T12:01:09;17.08;;;8.57;;
4873;SDS011;2451;49.970;9.068;2024-03-08T12:03:39;17.90;;;8.90;;
4873;SDS011;2451;49.970;9.068;2024-03-08T12:06:07;15.40;;;8.25;;
4873;SDS011;2451;49.970;9.068;2024-03-08T12:08:34;13.95;;;8.48;;
4873;SDS011;2451;49.970;9.068;2024-03-08T12:11:00;15.45;;;8.25;;
4873;SDS011;2451;49.970;9.068;2024-03-08T12:13:30;16.33;;;8.65;;
4873;SDS011;2451;49.970;9.068;2024-03-08T12:15:57;15.45;;;8.50;;
4873;SDS011;2451;49.970;9.068;2024-03-08T12:18:24;17.45;;;9.02;;
4873;SDS011;2451;49.970;9.068;2024-03-08T12:21:03;18.15;;;9.43;;
4873;SDS011;2451;49.970;9.068;2024-03-08T12:26:08;18.60;;;8.95;;
4873;SDS011;2451;49.970;9.068;2024-03-08T12:31:06;15.18;;;8.20;;
4873;SDS011;2451;49.970;9.068;2024-03-08T12:33:36;16.02;;;8.48;;
4873;SDS011;2451;49.970;9.068;2024-03-08T12:36:16;14.88;;;8.10;;
4873;SDS011;2451;49.970;9.068;2024-03-08T12:38:43;15.40;;;8.55;;
4873;SDS011;2451;49.970;9.068;2024-03-08T12:43:38;17.70;;;8.82;;
4873;SDS011;2451;49.970;9.068;2024-03-08T12:46:04;15.82;;;8.63;;
4873;SDS011;2451;49.970;9.068;2024-03-08T12:48:34;16.65;;;8.90;;
4873;SDS011;2451;49.970;9.068;2024-03-08T12:51:08;15.95;;;9.15;;
4873;SDS011;2451;49.970;9.068;2024-03-08T12:53:34;17.13;;;9.02;;
4873;SDS011;2451;49.970;9.068;2024-03-08T12:56:00;18.15;;;8.98;;
4873;SDS011;2451;49.970;9.068;2024-03-08T12:58:25;14.10;;;7.18;;
4873;SDS011;2451;49.970;9.068;2024-03-08T13:00:51;18.25;;;8.80;;
4873;SDS011;2451;49.970;9.068;2024-03-08T13:03:18;15.77;;;8.13;;
4873;SDS011;2451;49.970;9.068;2024-03-08T13:05:53;17.17;;;9.38;;
4873;SDS011;2451;49.970;9.068;2024-03-08T13:08:18;17.73;;;8.27;;
4873;SDS011;2451;49.970;9.068;2024-03-08T13:10:44;17.60;;;8.40;;
4873;SDS011;2451;49.970;9.068;2024-03-08T13:13:10;15.27;;;8.23;;
4873;SDS011;2451;49.970;9.068;2024-03-08T13:15:36;18.27;;;8.73;;
4873;SDS011;2451;49.970;9.068;2024-03-08T13:18:02;17.38;;;9.18;;
4873;SDS011;2451;49.970;9.068;2024-03-08T13:20:28;15.25;;;8.73;;
4873;SDS011;2451;49.970;9.068;2024-03-08T13:22:54;17.27;;;9.25;;
4873;SDS011;2451;49.970;9.068;2024-03-08T13:25:21;16.40;;;8.55;;
4873;SDS011;2451;49.970;9.068;2024-03-08T13:27:46;17.15;;;8.90;;
4873;SDS011;2451;49.970;9.068;2024-03-08T13:30:12;15.05;;;8.50;;
4873;SDS011;2451;49.970;9.068;2024-03-08T13:32:42;14.75;;;8.35;;
4873;SDS011;2451;49.970;9.068;2024-03-08T13:35:10;15.10;;;7.93;;
4873;SDS011;2451;49.970;9.068;2024-03-08T13:37:40;16.55;;;9.00;;
4873;SDS011;2451;49.970;9.068;2024-03-08T13:40:10;17.95;;;8.43;;
4873;SDS011;2451;49.970;9.068;2024-03-08T13:42:39;16.83;;;8.73;;
4873;SDS011;2451;49.970;9.068;2024-03-08T13:45:07;16.38;;;9.18;;
4873;SDS011;2451;49.970;9.068;2024-03-08T13:47:37;16.33;;;8.57;;
4873;SDS011;2451;49.970;9.068;2024-03-08T13:50:06;16.63;;;8.67;;
4873;SDS011;2451;49.970;9.068;2024-03-08T13:52:33;16.20;;;8.18;;
4873;SDS011;2451;49.970;9.068;2024-03-08T13:54:59;17.73;;;8.95;;
4873;SDS011;2451;49.970;9.068;2024-03-08T13:57:25;15.30;;;8.38;;
4873;SDS011;2451;49.970;9.068;2024-03-08T13:59:52;14.20;;;7.70;;
4873;SDS011;2451;49.970;9.068;2024-03-08T14:02:18;16.55;;;9.15;;
4873;SDS011;2451;49.970;9.068;2024-03-08T14:04:43;14.00;;;8.00;;
4873;SDS011;2451;49.970;9.068;2024-03-08T14:07:09;14.95;;;8.32;;
4873;SDS011;2451;49.970;9.068;2024-03-08T14:09:36;16.95;;;8.32;;
4873;SDS011;2451;49.970;9.068;2024-03-08T14:12:07;15.90;;;8.32;;
4873;SDS011;2451;49.970;9.068;2024-03-08T14:14:33;15.57;;;8.18;;
4873;SDS011;2451;49.970;9.068;2024-03-08T14:17:00;17.67;;;8.77;;
4873;SDS011;2451;49.970;9.068;2024-03-08T14:19:27;15.15;;;8.18;;
4873;SDS011;2451;49.970;9.068;2024-03-08T14:24:40;13.00;;;7.88;;
4873;SDS011;2451;49.970;9.068;2024-03-08T14:27:07;17.42;;;8.05;;
4873;SDS011;2451;49.970;9.068;2024-03-08T14:29:34;16.50;;;8.07;;
4873;SDS011;2451;49.970;9.068;2024-03-08T14:32:00;15.70;;;8.10;;
4873;SDS011;2451;49.970;9.068;2024-03-08T14:34:28;15.77;;;8.30;;
4873;SDS011;2451;49.970;9.068;2024-03-08T14:36:54;13.60;;;7.70;;
4873;SDS011;2451;49.970;9.068;2024-03-08T14:39:20;16.05;;;7.95;;
4873;SDS011;2451;49.970;9.068;2024-03-08T14:41:47;13.02;;;7.43;;
4873;SDS011;2451;49.970;9.068;2024-03-08T14:44:13;14.50;;;7.38;;
4873;SDS011;2451;49.970;9.068;2024-03-08T14:46:39;15.57;;;7.57;;
4873;SDS011;2451;49.970;9.068;2024-03-08T14:49:05;15.85;;;7.97;;
4873;SDS011;2451;49.970;9.068;2024-03-08T14:51:32;14.43;;;8.15;;
4873;SDS011;2451;49.970;9.068;2024-03-08T14:53:58;18.25;;;8.48;;
4873;SDS011;2451;49.970;9.068;2024-03-08T14:56:23;13.32;;;7.10;;
4873;SDS011;2451;49.970;9.068;2024-03-08T14:58:52;17.10;;;7.70;;
4873;SDS011;2451;49.970;9.068;2024-03-08T15:01:18;15.02;;;7.47;;
4873;SDS011;2451;49.970;9.068;2024-03-08T15:03:49;14.95;;;7.35;;
4873;SDS011;2451;49.970;9.068;2024-03-08T15:06:15;15.10;;;7.88;;
4873;SDS011;2451;49.970;9.068;2024-03-08T15:11:11;14.05;;;7.57;;
4873;SDS011;2451;49.970;9.068;2024-03-08T15:13:36;15.20;;;7.40;;